• Join FlightAware (Why Join?)
  • Login
  • US Flag 
08:26PM EDT


 

Airport Tracker/Info


-or-


 

Live Flight TrackerFlight Track Log ✈ N53NW ✈ 09-May-2013 ✈ KIAD - KAHN

Flight Track Log - Related Links

Times and Time Zones

All times are in EDT time to prevent confusion due to time zone crossing. See the N53NW flight status page for this flight to view local times or setup timezone preferences in your user account.

Time Position Orientation Groundspeed Altitude Reporting Facility
EDT Latitude Longitude Course Direction KTS MPH feet Rate Location/Type
04:56PM 38.9333 -77.5000 247° West 187 215 2,100  Level Potomac TRACON
04:57PM 38.9167 -77.5500 247° West 229 264 4,800 3,000 Climbing Potomac TRACON
04:58PM 38.8500 -77.5833 201° Southwest 251 289 7,900 3,180 Climbing Potomac TRACON
04:59PM 38.7667 -77.6167 197° South 293 337 11,200 2,940 Climbing Potomac TRACON
05:00PM 38.6706 -77.6603 200° South 323 372 14,200 1,740 Climbing Washington Center
05:01PM 38.5803 -77.6978 198° South 329 379 15,000 1,320 Climbing Washington Center
05:02PM 38.5000 -77.7431 204° Southwest 334 384 17,000 2,220 Climbing Washington Center
05:03PM 38.4483 -77.8372 235° Southwest 317 365 19,400 2,400 Climbing Washington Center
05:04PM 38.3986 -77.9364 237° Southwest 331 381 21,800 2,340 Climbing Washington Center
05:05PM 38.3425 -78.0325 233° Southwest 342 394 24,200 2,400 Climbing Washington Center
05:06PM 38.2717 -78.1200 224° Southwest 348 400 26,700 1,380 Climbing Washington Center
05:07PM 38.1989 -78.2128 225° Southwest 353 406 27,000 120 Climbing Washington Center
05:08PM 38.1239 -78.3053 224° Southwest 373 429 27,000 960 Level Washington Center
05:09PM 38.0486 -78.4000 225° Southwest 378 435 28,900 1,920 Climbing Washington Center
05:10PM 37.9797 -78.4869 225° Southwest 373 429 30,800 1,680 Climbing Washington Center
05:11PM 37.9003 -78.5814 223° Southwest 373 429 32,300 1,500 Climbing Washington Center
05:12PM 37.8314 -78.6681 225° Southwest 378 435 33,900 900 Climbing Washington Center
05:13PM 37.7497 -78.7672 224° Southwest 390 449 34,200 1,020 Climbing Washington Center
05:14PM 37.6719 -78.8583 223° Southwest 395 455 36,000 900 Climbing Washington Center
05:15PM 37.5900 -78.9597 224° Southwest 400 460 36,000  Level Washington Center
05:16PM 37.4992 -79.0681 223° Southwest 407 468 36,000  Level Washington Center
05:17PM 37.4150 -79.1689 224° Southwest 407 468 36,000  Level Washington Center
05:18PM 37.3306 -79.2669 223° Southwest 412 474 36,000  Level Washington Center
05:19PM 37.2461 -79.3697 224° Southwest 412 474 36,000 -120 Level Washington Center
05:20PM 37.1656 -79.4700 225° Southwest 412 474 35,800 -600 Descending Washington Center
05:21PM 37.0811 -79.5700 223° Southwest 412 474 34,800 -1,020 Descending Washington Center
05:22PM 37.0072 -79.6572 223° Southwest 412 474 33,800 -960 Descending Washington Center
05:23PM 36.9244 -79.7567 224° Southwest 417 480 32,900 -1,020 Descending Washington Center
05:25PM 36.6933 -80.0261 223° Southwest 412 474 30,100 -1,080 Descending Atlanta Center
05:26PM 36.6192 -80.1150 224° Southwest 418 481 29,000 -1,080 Descending Atlanta Center
05:27PM 36.5347 -80.2122 223° Southwest 418 481 28,000 -540 Descending Atlanta Center
05:28PM 36.4542 -80.3089 224° Southwest 413 475 28,000  Level Atlanta Center
05:29PM 36.3714 -80.4031 223° Southwest 413 475 28,000  Level Atlanta Center
05:30PM 36.2847 -80.5050 223° Southwest 413 475 28,000  Level Atlanta Center
05:31PM 36.2081 -80.5983 225° Southwest 411 473 28,000  Level Atlanta Center
05:32PM 36.1272 -80.6917 223° Southwest 405 466 28,000  Level Atlanta Center
05:33PM 36.0486 -80.7847 224° Southwest 400 460 28,000 -360 Level Atlanta Center
05:34PM 35.9653 -80.8753 221° Southwest 400 460 27,300 -900 Descending Atlanta Center
05:35PM 35.8903 -80.9631 223° Southwest 390 449 26,300 -1,020 Descending Atlanta Center
05:36PM 35.8153 -81.0503 223° Southwest 383 441 25,300 -1,080 Descending Atlanta Center
05:37PM 35.7361 -81.1400 223° Southwest 388 447 24,200 -1,080 Descending Atlanta Center
05:38PM 35.6506 -81.2250 219° Southwest 378 435 23,200 -960 Descending Atlanta Center
05:39PM 35.5753 -81.3169 225° Southwest 389 448 22,300 -1,020 Descending Atlanta Center
05:40PM 35.5003 -81.4086 225° Southwest 389 448 21,200 -1,080 Descending Atlanta Center
05:41PM 35.4289 -81.4875 222° Southwest 370 426 20,200 -1,020 Descending Atlanta Center
05:42PM 35.3553 -81.5636 220° Southwest 353 406 19,200 -960 Descending Atlanta Center
05:43PM 35.2731 -81.6272 212° Southwest 358 412 18,300 -600 Descending Atlanta Center
05:44PM 35.1931 -81.6878 212° Southwest 344 396 18,000 -180 Descending Atlanta Center
05:45PM 35.1147 -81.7486 212° Southwest 339 390 18,000 -540 Level Atlanta Center
05:46PM 35.0325 -81.8067 210° Southwest 344 396 17,000 -1,200 Descending Atlanta Center
05:47PM 34.9603 -81.8542 208° Southwest 337 388 15,600 -1,980 Descending Atlanta Center
05:48PM 34.8839 -81.9067 209° Southwest 325 374 13,100 -2,340 Descending Atlanta Center
05:49PM 34.8136 -81.9517 208° Southwest 305 351 11,000 -1,500 Descending Atlanta Center
05:50PM 34.7497 -81.9986 211° Southwest 290 334 10,200 -1,500 Descending Atlanta Center
05:51PM 34.6861 -82.0508 214° Southwest 283 326 8,000 -1,140 Descending Atlanta Center
05:52PM 34.6433 -82.1175 232° Southwest 271 312 8,000  Level Atlanta Center
05:53PM 34.5986 -82.1967 236° Southwest 276 318 8,000  Level Atlanta Center
05:54PM 34.5539 -82.2758 236° Southwest 285 328 8,000  Level Atlanta Center
05:55PM 34.5089 -82.3522 234° Southwest 279 321 8,000  Level Atlanta Center
05:56PM 34.4703 -82.4211 236° Southwest 291 335 8,000  Level Atlanta Center
05:57PM 34.4275 -82.5025 238° Southwest 291 335 8,000  Level Atlanta Center
05:58PM 34.3803 -82.5764 232° Southwest 286 329 8,000  Level Atlanta Center
05:59PM 34.3394 -82.6525 237° Southwest 286 329 8,000  Level Atlanta Center
06:00PM 34.2986 -82.7261 236° Southwest 276 318 8,000 -300 Level Atlanta Center
06:01PM 34.2514 -82.8047 234° Southwest 271 312 7,500 -960 Descending Atlanta Center
06:02PM 34.2083 -82.8783 235° Southwest 271 312 6,100 -780 Descending Atlanta Center
06:03PM 34.1692 -82.9492 236° Southwest 266 306 6,000 -60 Descending Atlanta Center
06:04PM 34.1303 -83.0150 234° Southwest 260 299 6,000 -300 Level Atlanta Center
06:05PM 34.0889 -83.0831 234° Southwest 260 299 5,400 -1,140 Descending Atlanta Center
06:06PM 34.0519 -83.1461 235° Southwest 255 293 3,800 -1,500 Descending Atlanta Center
06:07PM 34.0106 -83.2017 228° Southwest 242 278 2,500 -720 Descending Atlanta Center
06:08PM 33.9753 -83.2472 227° Southwest 212 244 2,400 -540 Descending Atlanta Center
06:09PM 33.9464 -83.2850 227° Southwest 183 211 1,500 -600 Descending Atlanta Center
06:10PM 33.9194 -83.3278 233° Southwest 167 192 1,200 -300 Descending Atlanta Center
06:12PM 33.9333 -83.3167 North  Level FlightAware Approximate
06:19PM 33.9486 -83.3264 North  Level Estimated